sensor_id;sensor_type;location;lat;lon;timestamp;pressure;altitude;pressure_sealevel;temperature
35582;BMP180;21687;48.900;9.188;2023-07-30T00:02:07;98012.00;;;16.60
35582;BMP180;21687;48.900;9.188;2023-07-30T00:04:34;98000.00;;;16.50
35582;BMP180;21687;48.900;9.188;2023-07-30T00:07:00;97994.00;;;16.40
35582;BMP180;21687;48.900;9.188;2023-07-30T00:09:26;97994.00;;;16.40
35582;BMP180;21687;48.900;9.188;2023-07-30T00:11:52;97980.00;;;16.30
35582;BMP180;21687;48.900;9.188;2023-07-30T00:14:19;97981.00;;;16.30
35582;BMP180;21687;48.900;9.188;2023-07-30T00:16:45;97978.00;;;16.30
35582;BMP180;21687;48.900;9.188;2023-07-30T00:19:12;97982.00;;;16.30
35582;BMP180;21687;48.900;9.188;2023-07-30T00:21:38;97984.00;;;16.30
35582;BMP180;21687;48.900;9.188;2023-07-30T00:24:05;97986.00;;;16.30
35582;BMP180;21687;48.900;9.188;2023-07-30T00:26:31;97991.00;;;16.20
35582;BMP180;21687;48.900;9.188;2023-07-30T00:28:57;97994.00;;;16.20
35582;BMP180;21687;48.900;9.188;2023-07-30T00:31:24;98012.00;;;16.10
35582;BMP180;21687;48.900;9.188;2023-07-30T00:33:50;98036.00;;;16.10
35582;BMP180;21687;48.900;9.188;2023-07-30T00:36:16;98033.00;;;16.20
35582;BMP180;21687;48.900;9.188;2023-07-30T00:38:43;98037.00;;;16.20
35582;BMP180;21687;48.900;9.188;2023-07-30T00:41:09;98030.00;;;16.10
35582;BMP180;21687;48.900;9.188;2023-07-30T00:43:35;98017.00;;;16.10
35582;BMP180;21687;48.900;9.188;2023-07-30T00:46:02;98023.00;;;16.10
35582;BMP180;21687;48.900;9.188;2023-07-30T00:48:29;98031.00;;;16.10
35582;BMP180;21687;48.900;9.188;2023-07-30T00:50:56;98039.00;;;16.10
35582;BMP180;21687;48.900;9.188;2023-07-30T00:53:23;98041.00;;;16.10
35582;BMP180;21687;48.900;9.188;2023-07-30T00:55:52;98036.00;;;16.00
35582;BMP180;21687;48.900;9.188;2023-07-30T00:58:20;98036.00;;;16.00
35582;BMP180;21687;48.900;9.188;2023-07-30T01:00:47;98035.00;;;16.00
35582;BMP180;21687;48.900;9.188;2023-07-30T01:03:14;98040.00;;;16.00
35582;BMP180;21687;48.900;9.188;2023-07-30T01:05:40;98049.00;;;16.10
35582;BMP180;21687;48.900;9.188;2023-07-30T01:08:07;98040.00;;;16.10
35582;BMP180;21687;48.900;9.188;2023-07-30T01:10:33;98045.00;;;16.10
35582;BMP180;21687;48.900;9.188;2023-07-30T01:13:02;98057.00;;;16.20
35582;BMP180;21687;48.900;9.188;2023-07-30T01:15:30;98051.00;;;16.20
35582;BMP180;21687;48.900;9.188;2023-07-30T01:17:56;98057.00;;;16.20
35582;BMP180;21687;48.900;9.188;2023-07-30T01:20:23;98054.00;;;16.30
35582;BMP180;21687;48.900;9.188;2023-07-30T01:22:49;98061.00;;;16.30
35582;BMP180;21687;48.900;9.188;2023-07-30T01:25:17;98057.00;;;16.30
35582;BMP180;21687;48.900;9.188;2023-07-30T01:27:50;98062.00;;;16.30
35582;BMP180;21687;48.900;9.188;2023-07-30T01:30:38;98056.00;;;16.30
35582;BMP180;21687;48.900;9.188;2023-07-30T01:33:06;98071.00;;;16.30
35582;BMP180;21687;48.900;9.188;2023-07-30T01:35:33;98073.00;;;16.20
35582;BMP180;21687;48.900;9.188;2023-07-30T01:38:02;98073.00;;;16.20
35582;BMP180;21687;48.900;9.188;2023-07-30T01:40:32;98071.00;;;16.30
35582;BMP180;21687;48.900;9.188;2023-07-30T01:42:59;98073.00;;;16.30
35582;BMP180;21687;48.900;9.188;2023-07-30T01:45:25;98075.00;;;16.40
35582;BMP180;21687;48.900;9.188;2023-07-30T01:47:52;98078.00;;;16.30
35582;BMP180;21687;48.900;9.188;2023-07-30T01:50:19;98070.00;;;16.30
35582;BMP180;21687;48.900;9.188;2023-07-30T01:52:45;98071.00;;;16.30
35582;BMP180;21687;48.900;9.188;2023-07-30T01:55:11;98066.00;;;16.30
35582;BMP180;21687;48.900;9.188;2023-07-30T01:57:37;98062.00;;;16.30
35582;BMP180;21687;48.900;9.188;2023-07-30T02:00:04;98065.00;;;16.40
35582;BMP180;21687;48.900;9.188;2023-07-30T02:02:31;98068.00;;;16.40
35582;BMP180;21687;48.900;9.188;2023-07-30T02:04:57;98063.00;;;16.30
35582;BMP180;21687;48.900;9.188;2023-07-30T02:07:23;98071.00;;;16.30
35582;BMP180;21687;48.900;9.188;2023-07-30T02:09:50;98069.00;;;16.30
35582;BMP180;21687;48.900;9.188;2023-07-30T02:12:16;98067.00;;;16.20
35582;BMP180;21687;48.900;9.188;2023-07-30T02:14:42;98067.00;;;16.20
35582;BMP180;21687;48.900;9.188;2023-07-30T02:17:09;98061.00;;;16.20
35582;BMP180;21687;48.900;9.188;2023-07-30T02:19:35;98047.00;;;16.20
35582;BMP180;21687;48.900;9.188;2023-07-30T02:22:01;98059.00;;;16.20
35582;BMP180;21687;48.900;9.188;2023-07-30T02:24:28;98062.00;;;16.20
35582;BMP180;21687;48.900;9.188;2023-07-30T02:26:54;98059.00;;;16.20
35582;BMP180;21687;48.900;9.188;2023-07-30T02:29:20;98069.00;;;16.20
35582;BMP180;21687;48.900;9.188;2023-07-30T02:31:47;98061.00;;;16.20
35582;BMP180;21687;48.900;9.188;2023-07-30T02:34:13;98060.00;;;16.20
35582;BMP180;21687;48.900;9.188;2023-07-30T02:36:39;98060.00;;;16.10
35582;BMP180;21687;48.900;9.188;2023-07-30T02:39:05;98064.00;;;16.10
35582;BMP180;21687;48.900;9.188;2023-07-30T02:41:32;98067.00;;;16.10
35582;BMP180;21687;48.900;9.188;2023-07-30T02:43:58;98066.00;;;16.00
35582;BMP180;21687;48.900;9.188;2023-07-30T02:46:24;98064.00;;;16.00
35582;BMP180;21687;48.900;9.188;2023-07-30T02:48:50;98073.00;;;16.00
35582;BMP180;21687;48.900;9.188;2023-07-30T02:51:17;98065.00;;;16.00
35582;BMP180;21687;48.900;9.188;2023-07-30T02:53:46;98067.00;;;16.10
35582;BMP180;21687;48.900;9.188;2023-07-30T02:56:12;98073.00;;;16.00
35582;BMP180;21687;48.900;9.188;2023-07-30T02:58:38;98074.00;;;16.00
35582;BMP180;21687;48.900;9.188;2023-07-30T03:01:08;98072.00;;;15.90
35582;BMP180;21687;48.900;9.188;2023-07-30T03:03:35;98076.00;;;15.90
35582;BMP180;21687;48.900;9.188;2023-07-30T03:06:02;98085.00;;;15.90
35582;BMP180;21687;48.900;9.188;2023-07-30T03:08:28;98082.00;;;15.90
35582;BMP180;21687;48.900;9.188;2023-07-30T03:10:57;98086.00;;;16.00
35582;BMP180;21687;48.900;9.188;2023-07-30T03:13:23;98081.00;;;16.00
35582;BMP180;21687;48.900;9.188;2023-07-30T03:15:49;98085.00;;;16.00
35582;BMP180;21687;48.900;9.188;2023-07-30T03:18:15;98075.00;;;16.00
35582;BMP180;21687;48.900;9.188;2023-07-30T03:20:42;98069.00;;;16.00
35582;BMP180;21687;48.900;9.188;2023-07-30T03:23:08;98071.00;;;16.00
35582;BMP180;21687;48.900;9.188;2023-07-30T03:25:34;98074.00;;;16.10
35582;BMP180;21687;48.900;9.188;2023-07-30T03:28:00;98071.00;;;16.00
35582;BMP180;21687;48.900;9.188;2023-07-30T03:30:27;98074.00;;;16.20
35582;BMP180;21687;48.900;9.188;2023-07-30T03:32:53;98077.00;;;16.20
35582;BMP180;21687;48.900;9.188;2023-07-30T03:35:19;98069.00;;;16.20
35582;BMP180;21687;48.900;9.188;2023-07-30T03:37:45;98072.00;;;16.30
35582;BMP180;21687;48.900;9.188;2023-07-30T03:40:12;98083.00;;;16.40
35582;BMP180;21687;48.900;9.188;2023-07-30T03:42:38;98085.00;;;16.40
35582;BMP180;21687;48.900;9.188;2023-07-30T03:45:05;98085.00;;;16.40
35582;BMP180;21687;48.900;9.188;2023-07-30T03:47:31;98094.00;;;16.50
35582;BMP180;21687;48.900;9.188;2023-07-30T03:49:58;98097.00;;;16.50
35582;BMP180;21687;48.900;9.188;2023-07-30T03:52:24;98105.00;;;16.50
35582;BMP180;21687;48.900;9.188;2023-07-30T03:54:51;98104.00;;;16.50
35582;BMP180;21687;48.900;9.188;2023-07-30T03:57:17;98105.00;;;16.50
35582;BMP180;21687;48.900;9.188;2023-07-30T03:59:43;98111.00;;;16.60
35582;BMP180;21687;48.900;9.188;2023-07-30T04:02:09;98105.00;;;16.60
35582;BMP180;21687;48.900;9.188;2023-07-30T04:04:41;98111.00;;;16.70
35582;BMP180;21687;48.900;9.188;2023-07-30T04:07:10;98115.00;;;16.70
35582;BMP180;21687;48.900;9.188;2023-07-30T04:09:36;98105.00;;;16.80
35582;BMP180;21687;48.900;9.188;2023-07-30T04:12:02;98113.00;;;16.80
35582;BMP180;21687;48.900;9.188;2023-07-30T04:14:29;98108.00;;;16.90
35582;BMP180;21687;48.900;9.188;2023-07-30T04:16:56;98104.00;;;16.90
35582;BMP180;21687;48.900;9.188;2023-07-30T04:19:22;98108.00;;;16.90
35582;BMP180;21687;48.900;9.188;2023-07-30T04:21:48;98091.00;;;16.90
35582;BMP180;21687;48.900;9.188;2023-07-30T04:24:15;98101.00;;;16.90
35582;BMP180;21687;48.900;9.188;2023-07-30T04:26:41;98108.00;;;16.90
35582;BMP180;21687;48.900;9.188;2023-07-30T04:29:07;98117.00;;;16.90
35582;BMP180;21687;48.900;9.188;2023-07-30T04:31:33;98115.00;;;16.90
35582;BMP180;21687;48.900;9.188;2023-07-30T04:34:00;98109.00;;;16.80
35582;BMP180;21687;48.900;9.188;2023-07-30T04:36:26;98119.00;;;16.80
35582;BMP180;21687;48.900;9.188;2023-07-30T04:38:53;98114.00;;;16.90
35582;BMP180;21687;48.900;9.188;2023-07-30T04:41:20;98120.00;;;16.90
35582;BMP180;21687;48.900;9.188;2023-07-30T04:43:46;98129.00;;;16.90
35582;BMP180;21687;48.900;9.188;2023-07-30T04:46:13;98133.00;;;16.90
35582;BMP180;21687;48.900;9.188;2023-07-30T04:48:40;98124.00;;;16.90
35582;BMP180;21687;48.900;9.188;2023-07-30T04:51:06;98134.00;;;17.00
35582;BMP180;21687;48.900;9.188;2023-07-30T04:53:33;98132.00;;;17.10
35582;BMP180;21687;48.900;9.188;2023-07-30T04:55:59;98127.00;;;17.20
35582;BMP180;21687;48.900;9.188;2023-07-30T04:58:26;98136.00;;;17.30
35582;BMP180;21687;48.900;9.188;2023-07-30T05:00:52;98150.00;;;17.20
35582;BMP180;21687;48.900;9.188;2023-07-30T05:03:18;98150.00;;;17.30
35582;BMP180;21687;48.900;9.188;2023-07-30T05:05:45;98154.00;;;17.30
35582;BMP180;21687;48.900;9.188;2023-07-30T05:08:11;98151.00;;;17.20
35582;BMP180;21687;48.900;9.188;2023-07-30T05:10:37;98160.00;;;17.20
35582;BMP180;21687;48.900;9.188;2023-07-30T05:13:04;98151.00;;;17.20
35582;BMP180;21687;48.900;9.188;2023-07-30T05:15:30;98156.00;;;17.10
35582;BMP180;21687;48.900;9.188;2023-07-30T05:17:57;98156.00;;;17.00
35582;BMP180;21687;48.900;9.188;2023-07-30T05:20:23;98163.00;;;16.90
35582;BMP180;21687;48.900;9.188;2023-07-30T05:22:49;98166.00;;;16.90
35582;BMP180;21687;48.900;9.188;2023-07-30T05:25:16;98164.00;;;16.80
35582;BMP180;21687;48.900;9.188;2023-07-30T05:27:42;98153.00;;;16.80
35582;BMP180;21687;48.900;9.188;2023-07-30T05:30:09;98168.00;;;16.70
35582;BMP180;21687;48.900;9.188;2023-07-30T05:32:35;98166.00;;;16.70
35582;BMP180;21687;48.900;9.188;2023-07-30T05:35:01;98164.00;;;16.70
35582;BMP180;21687;48.900;9.188;2023-07-30T05:37:28;98163.00;;;16.70
35582;BMP180;21687;48.900;9.188;2023-07-30T05:39:54;98143.00;;;16.70
35582;BMP180;21687;48.900;9.188;2023-07-30T05:42:20;98145.00;;;16.70
35582;BMP180;21687;48.900;9.188;2023-07-30T05:44:46;98148.00;;;16.80
35582;BMP180;21687;48.900;9.188;2023-07-30T05:47:13;98141.00;;;16.80
35582;BMP180;21687;48.900;9.188;2023-07-30T05:49:40;98143.00;;;16.70
35582;BMP180;21687;48.900;9.188;2023-07-30T05:52:06;98139.00;;;16.60
35582;BMP180;21687;48.900;9.188;2023-07-30T05:54:32;98132.00;;;16.70
35582;BMP180;21687;48.900;9.188;2023-07-30T05:56:59;98142.00;;;16.70
35582;BMP180;21687;48.900;9.188;2023-07-30T05:59:25;98150.00;;;16.70
35582;BMP180;21687;48.900;9.188;2023-07-30T06:01:51;98159.00;;;16.80
35582;BMP180;21687;48.900;9.188;2023-07-30T06:04:18;98158.00;;;16.80
35582;BMP180;21687;48.900;9.188;2023-07-30T06:06:44;98158.00;;;16.80
35582;BMP180;21687;48.900;9.188;2023-07-30T06:09:11;98159.00;;;16.80
35582;BMP180;21687;48.900;9.188;2023-07-30T06:11:38;98153.00;;;16.80
35582;BMP180;21687;48.900;9.188;2023-07-30T06:14:04;98135.00;;;16.70
35582;BMP180;21687;48.900;9.188;2023-07-30T06:16:31;98139.00;;;16.70
35582;BMP180;21687;48.900;9.188;2023-07-30T06:18:57;98142.00;;;16.70
35582;BMP180;21687;48.900;9.188;2023-07-30T06:21:23;98147.00;;;16.90
35582;BMP180;21687;48.900;9.188;2023-07-30T06:23:49;98151.00;;;17.00
35582;BMP180;21687;48.900;9.188;2023-07-30T06:26:16;98159.00;;;17.10
35582;BMP180;21687;48.900;9.188;2023-07-30T06:28:42;98164.00;;;17.20
35582;BMP180;21687;48.900;9.188;2023-07-30T06:31:08;98157.00;;;17.70
35582;BMP180;21687;48.900;9.188;2023-07-30T06:33:35;98153.00;;;17.90
35582;BMP180;21687;48.900;9.188;2023-07-30T06:36:01;98158.00;;;18.10
35582;BMP180;21687;48.900;9.188;2023-07-30T06:38:27;98158.00;;;18.50
35582;BMP180;21687;48.900;9.188;2023-07-30T06:40:53;98157.00;;;18.90
35582;BMP180;21687;48.900;9.188;2023-07-30T06:43:20;98167.00;;;19.40
35582;BMP180;21687;48.900;9.188;2023-07-30T06:45:46;98175.00;;;20.10
35582;BMP180;21687;48.900;9.188;2023-07-30T06:48:12;98188.00;;;20.60
35582;BMP180;21687;48.900;9.188;2023-07-30T06:50:39;98175.00;;;20.50
35582;BMP180;21687;48.900;9.188;2023-07-30T06:53:05;98185.00;;;20.80
35582;BMP180;21687;48.900;9.188;2023-07-30T06:55:32;98187.00;;;21.00
35582;BMP180;21687;48.900;9.188;2023-07-30T06:57:58;98199.00;;;21.10
35582;BMP180;21687;48.900;9.188;2023-07-30T07:00:24;98191.00;;;20.60
35582;BMP180;21687;48.900;9.188;2023-07-30T07:02:51;98189.00;;;20.40
35582;BMP180;21687;48.900;9.188;2023-07-30T07:05:17;98198.00;;;20.10
35582;BMP180;21687;48.900;9.188;2023-07-30T07:07:44;98199.00;;;19.90
35582;BMP180;21687;48.900;9.188;2023-07-30T07:10:11;98203.00;;;19.80
35582;BMP180;21687;48.900;9.188;2023-07-30T07:12:38;98203.00;;;19.90
35582;BMP180;21687;48.900;9.188;2023-07-30T07:15:06;98207.00;;;19.80
35582;BMP180;21687;48.900;9.188;2023-07-30T07:17:33;98220.00;;;19.80
35582;BMP180;21687;48.900;9.188;2023-07-30T07:19:59;98214.00;;;19.80
35582;BMP180;21687;48.900;9.188;2023-07-30T07:22:25;98210.00;;;19.70
35582;BMP180;21687;48.900;9.188;2023-07-30T07:24:52;98217.00;;;19.50
35582;BMP180;21687;48.900;9.188;2023-07-30T07:27:21;98212.00;;;19.40
35582;BMP180;21687;48.900;9.188;2023-07-30T07:29:50;98219.00;;;19.20
35582;BMP180;21687;48.900;9.188;2023-07-30T07:32:17;98220.00;;;19.10
35582;BMP180;21687;48.900;9.188;2023-07-30T07:34:47;98228.00;;;19.00
35582;BMP180;21687;48.900;9.188;2023-07-30T07:37:14;98236.00;;;18.90
35582;BMP180;21687;48.900;9.188;2023-07-30T07:39:42;98247.00;;;18.90
35582;BMP180;21687;48.900;9.188;2023-07-30T07:42:08;98241.00;;;18.80
35582;BMP180;21687;48.900;9.188;2023-07-30T07:44:35;98241.00;;;18.60
35582;BMP180;21687;48.900;9.188;2023-07-30T07:47:01;98245.00;;;18.50
35582;BMP180;21687;48.900;9.188;2023-07-30T07:49:28;98257.00;;;18.40
35582;BMP180;21687;48.900;9.188;2023-07-30T07:51:54;98249.00;;;18.30
35582;BMP180;21687;48.900;9.188;2023-07-30T07:54:20;98261.00;;;18.20
35582;BMP180;21687;48.900;9.188;2023-07-30T07:56:46;98249.00;;;18.00
35582;BMP180;21687;48.900;9.188;2023-07-30T07:59:13;98244.00;;;17.80
35582;BMP180;21687;48.900;9.188;2023-07-30T08:01:39;98256.00;;;17.70
35582;BMP180;21687;48.900;9.188;2023-07-30T08:04:05;98247.00;;;17.60
35582;BMP180;21687;48.900;9.188;2023-07-30T08:06:32;98242.00;;;17.70
35582;BMP180;21687;48.900;9.188;2023-07-30T08:08:59;98249.00;;;17.80
35582;BMP180;21687;48.900;9.188;2023-07-30T08:11:25;98249.00;;;18.00
35582;BMP180;21687;48.900;9.188;2023-07-30T08:13:51;98250.00;;;18.20
35582;BMP180;21687;48.900;9.188;2023-07-30T08:16:17;98250.00;;;18.30
35582;BMP180;21687;48.900;9.188;2023-07-30T08:18:44;98245.00;;;18.50
35582;BMP180;21687;48.900;9.188;2023-07-30T08:21:10;98243.00;;;18.60
35582;BMP180;21687;48.900;9.188;2023-07-30T08:23:36;98247.00;;;18.70
35582;BMP180;21687;48.900;9.188;2023-07-30T08:26:03;98252.00;;;18.90
35582;BMP180;21687;48.900;9.188;2023-07-30T08:28:29;98254.00;;;19.10
35582;BMP180;21687;48.900;9.188;2023-07-30T08:31:00;98251.00;;;19.20
35582;BMP180;21687;48.900;9.188;2023-07-30T08:33:28;98243.00;;;19.50
35582;BMP180;21687;48.900;9.188;2023-07-30T08:35:56;98250.00;;;19.80
35582;BMP180;21687;48.900;9.188;2023-07-30T08:38:23;98250.00;;;20.10
35582;BMP180;21687;48.900;9.188;2023-07-30T08:40:49;98240.00;;;20.30
35582;BMP180;21687;48.900;9.188;2023-07-30T08:43:17;98236.00;;;20.50
35582;BMP180;21687;48.900;9.188;2023-07-30T08:45:44;98236.00;;;20.30
35582;BMP180;21687;48.900;9.188;2023-07-30T08:48:10;98232.00;;;20.20
35582;BMP180;21687;48.900;9.188;2023-07-30T08:50:37;98226.00;;;20.10
35582;BMP180;21687;48.900;9.188;2023-07-30T08:53:04;98226.00;;;20.00
35582;BMP180;21687;48.900;9.188;2023-07-30T08:55:34;98245.00;;;20.30
35582;BMP180;21687;48.900;9.188;2023-07-30T08:58:01;98246.00;;;20.60
35582;BMP180;21687;48.900;9.188;2023-07-30T09:00:31;98246.00;;;20.80
35582;BMP180;21687;48.900;9.188;2023-07-30T09:03:00;98256.00;;;21.10
35582;BMP180;21687;48.900;9.188;2023-07-30T09:05:29;98253.00;;;21.30
35582;BMP180;21687;48.900;9.188;2023-07-30T09:07:56;98253.00;;;21.40
35582;BMP180;21687;48.900;9.188;2023-07-30T09:10:22;98262.00;;;21.70
35582;BMP180;21687;48.900;9.188;2023-07-30T09:12:56;98251.00;;;21.90
35582;BMP180;21687;48.900;9.188;2023-07-30T09:15:35;98256.00;;;21.80
35582;BMP180;21687;48.900;9.188;2023-07-30T09:18:04;98247.00;;;21.40
35582;BMP180;21687;48.900;9.188;2023-07-30T09:20:41;98265.00;;;21.70
35582;BMP180;21687;48.900;9.188;2023-07-30T09:23:08;98264.00;;;21.70
35582;BMP180;21687;48.900;9.188;2023-07-30T09:25:36;98254.00;;;21.50
35582;BMP180;21687;48.900;9.188;2023-07-30T09:28:02;98260.00;;;21.50
35582;BMP180;21687;48.900;9.188;2023-07-30T09:30:29;98262.00;;;21.60
35582;BMP180;21687;48.900;9.188;2023-07-30T09:32:57;98254.00;;;21.60
35582;BMP180;21687;48.900;9.188;2023-07-30T09:35:25;98265.00;;;21.50
35582;BMP180;21687;48.900;9.188;2023-07-30T09:37:59;98264.00;;;21.10
35582;BMP180;21687;48.900;9.188;2023-07-30T09:40:36;98269.00;;;21.20
35582;BMP180;21687;48.900;9.188;2023-07-30T09:43:03;98264.00;;;21.10
35582;BMP180;21687;48.900;9.188;2023-07-30T09:45:34;98284.00;;;21.20
35582;BMP180;21687;48.900;9.188;2023-07-30T09:48:03;98286.00;;;21.40
35582;BMP180;21687;48.900;9.188;2023-07-30T09:50:33;98290.00;;;21.90
35582;BMP180;21687;48.900;9.188;2023-07-30T09:53:01;98293.00;;;21.90
35582;BMP180;21687;48.900;9.188;2023-07-30T09:55:29;98291.00;;;21.90
35582;BMP180;21687;48.900;9.188;2023-07-30T09:57:55;98300.00;;;21.80
35582;BMP180;21687;48.900;9.188;2023-07-30T10:00:22;98295.00;;;21.80
35582;BMP180;21687;48.900;9.188;2023-07-30T10:02:49;98295.00;;;21.30
35582;BMP180;21687;48.900;9.188;2023-07-30T10:05:20;98300.00;;;21.20
35582;BMP180;21687;48.900;9.188;2023-07-30T10:07:58;98305.00;;;21.20
35582;BMP180;21687;48.900;9.188;2023-07-30T10:10:26;98292.00;;;21.10
35582;BMP180;21687;48.900;9.188;2023-07-30T10:12:56;98304.00;;;21.20
35582;BMP180;21687;48.900;9.188;2023-07-30T10:15:25;98302.00;;;21.10
35582;BMP180;21687;48.900;9.188;2023-07-30T10:17:52;98311.00;;;21.20
35582;BMP180;21687;48.900;9.188;2023-07-30T10:20:24;98299.00;;;21.60
35582;BMP180;21687;48.900;9.188;2023-07-30T10:22:52;98310.00;;;22.10
35582;BMP180;21687;48.900;9.188;2023-07-30T10:25:22;98312.00;;;22.20
35582;BMP180;21687;48.900;9.188;2023-07-30T10:27:50;98310.00;;;22.40
35582;BMP180;21687;48.900;9.188;2023-07-30T10:30:18;98309.00;;;22.60
35582;BMP180;21687;48.900;9.188;2023-07-30T10:35:45;98307.00;;;22.70
35582;BMP180;21687;48.900;9.188;2023-07-30T10:40:41;98306.00;;;22.80
35582;BMP180;21687;48.900;9.188;2023-07-30T10:43:17;98312.00;;;22.50
35582;BMP180;21687;48.900;9.188;2023-07-30T10:45:50;98308.00;;;22.30
35582;BMP180;21687;48.900;9.188;2023-07-30T10:48:17;98310.00;;;22.50
35582;BMP180;21687;48.900;9.188;2023-07-30T10:50:44;98305.00;;;23.00
35582;BMP180;21687;48.900;9.188;2023-07-30T10:53:15;98312.00;;;23.10
35582;BMP180;21687;48.900;9.188;2023-07-30T10:55:45;98315.00;;;23.20
35582;BMP180;21687;48.900;9.188;2023-07-30T10:58:12;98303.00;;;23.40
35582;BMP180;21687;48.900;9.188;2023-07-30T11:00:39;98306.00;;;23.50
35582;BMP180;21687;48.900;9.188;2023-07-30T11:03:06;98322.00;;;23.20
35582;BMP180;21687;48.900;9.188;2023-07-30T11:05:32;98326.00;;;22.50
35582;BMP180;21687;48.900;9.188;2023-07-30T11:07:58;98340.00;;;22.10
35582;BMP180;21687;48.900;9.188;2023-07-30T11:10:25;98337.00;;;22.00
35582;BMP180;21687;48.900;9.188;2023-07-30T11:12:51;98333.00;;;21.40
35582;BMP180;21687;48.900;9.188;2023-07-30T11:15:18;98364.00;;;21.20
35582;BMP180;21687;48.900;9.188;2023-07-30T11:17:44;98352.00;;;20.80
35582;BMP180;21687;48.900;9.188;2023-07-30T11:20:26;98355.00;;;20.20
35582;BMP180;21687;48.900;9.188;2023-07-30T11:22:53;98359.00;;;19.90
35582;BMP180;21687;48.900;9.188;2023-07-30T11:25:20;98379.00;;;19.70
35582;BMP180;21687;48.900;9.188;2023-07-30T11:27:47;98372.00;;;19.20
35582;BMP180;21687;48.900;9.188;2023-07-30T11:30:14;98366.00;;;19.00
35582;BMP180;21687;48.900;9.188;2023-07-30T11:32:41;98372.00;;;19.20
35582;BMP180;21687;48.900;9.188;2023-07-30T11:35:08;98353.00;;;19.40
35582;BMP180;21687;48.900;9.188;2023-07-30T11:37:35;98364.00;;;19.70
35582;BMP180;21687;48.900;9.188;2023-07-30T11:40:07;98365.00;;;20.00
35582;BMP180;21687;48.900;9.188;2023-07-30T11:42:38;98357.00;;;20.20
35582;BMP180;21687;48.900;9.188;2023-07-30T11:45:21;98364.00;;;20.60
35582;BMP180;21687;48.900;9.188;2023-07-30T11:47:49;98350.00;;;21.20
35582;BMP180;21687;48.900;9.188;2023-07-30T11:50:16;98361.00;;;21.60
35582;BMP180;21687;48.900;9.188;2023-07-30T11:52:53;98369.00;;;21.80
35582;BMP180;21687;48.900;9.188;2023-07-30T11:55:20;98366.00;;;22.00
35582;BMP180;21687;48.900;9.188;2023-07-30T11:57:46;98364.00;;;21.90
35582;BMP180;21687;48.900;9.188;2023-07-30T12:00:13;98372.00;;;22.10
35582;BMP180;21687;48.900;9.188;2023-07-30T12:02:39;98363.00;;;22.30
35582;BMP180;21687;48.900;9.188;2023-07-30T12:05:06;98361.00;;;22.40
35582;BMP180;21687;48.900;9.188;2023-07-30T12:07:35;98356.00;;;22.80
35582;BMP180;21687;48.900;9.188;2023-07-30T12:10:10;98360.00;;;22.80
35582;BMP180;21687;48.900;9.188;2023-07-30T12:12:36;98362.00;;;22.80
35582;BMP180;21687;48.900;9.188;2023-07-30T12:15:10;98364.00;;;22.50
35582;BMP180;21687;48.900;9.188;2023-07-30T12:17:38;98367.00;;;22.60
35582;BMP180;21687;48.900;9.188;2023-07-30T12:20:05;98361.00;;;22.60
35582;BMP180;21687;48.900;9.188;2023-07-30T12:22:35;98369.00;;;22.50
35582;BMP180;21687;48.900;9.188;2023-07-30T12:25:02;98366.00;;;22.50
35582;BMP180;21687;48.900;9.188;2023-07-30T12:27:32;98370.00;;;22.30
35582;BMP180;21687;48.900;9.188;2023-07-30T12:29:58;98365.00;;;22.40
35582;BMP180;21687;48.900;9.188;2023-07-30T12:32:24;98362.00;;;22.30
35582;BMP180;21687;48.900;9.188;2023-07-30T12:34:54;98358.00;;;22.20
35582;BMP180;21687;48.900;9.188;2023-07-30T12:37:20;98362.00;;;22.30
35582;BMP180;21687;48.900;9.188;2023-07-30T12:39:47;98367.00;;;22.50
35582;BMP180;21687;48.900;9.188;2023-07-30T12:42:14;98371.00;;;22.50
35582;BMP180;21687;48.900;9.188;2023-07-30T12:44:40;98361.00;;;22.60
35582;BMP180;21687;48.900;9.188;2023-07-30T12:47:06;98353.00;;;22.80
35582;BMP180;21687;48.900;9.188;2023-07-30T12:49:33;98381.00;;;22.90
35582;BMP180;21687;48.900;9.188;2023-07-30T12:51:59;98388.00;;;23.00
35582;BMP180;21687;48.900;9.188;2023-07-30T12:54:25;98367.00;;;22.80
35582;BMP180;21687;48.900;9.188;2023-07-30T12:56:52;98385.00;;;23.00
35582;BMP180;21687;48.900;9.188;2023-07-30T12:59:18;98393.00;;;22.60
35582;BMP180;21687;48.900;9.188;2023-07-30T13:01:44;98411.00;;;22.20
35582;BMP180;21687;48.900;9.188;2023-07-30T13:04:10;98414.00;;;22.10
35582;BMP180;21687;48.900;9.188;2023-07-30T13:06:36;98402.00;;;21.70
35582;BMP180;21687;48.900;9.188;2023-07-30T13:09:03;98383.00;;;21.40
35582;BMP180;21687;48.900;9.188;2023-07-30T13:11:29;98390.00;;;21.70
35582;BMP180;21687;48.900;9.188;2023-07-30T13:13:55;98391.00;;;22.00
35582;BMP180;21687;48.900;9.188;2023-07-30T13:16:22;98395.00;;;22.30
35582;BMP180;21687;48.900;9.188;2023-07-30T13:18:48;98387.00;;;22.60
35582;BMP180;21687;48.900;9.188;2023-07-30T13:21:14;98390.00;;;23.00
35582;BMP180;21687;48.900;9.188;2023-07-30T13:23:41;98386.00;;;23.00
35582;BMP180;21687;48.900;9.188;2023-07-30T13:26:07;98390.00;;;23.30
35582;BMP180;21687;48.900;9.188;2023-07-30T13:28:33;98384.00;;;23.20
35582;BMP180;21687;48.900;9.188;2023-07-30T13:30:59;98386.00;;;23.60
35582;BMP180;21687;48.900;9.188;2023-07-30T13:33:26;98390.00;;;23.10
35582;BMP180;21687;48.900;9.188;2023-07-30T13:35:52;98392.00;;;23.20
35582;BMP180;21687;48.900;9.188;2023-07-30T13:38:18;98396.00;;;23.00
35582;BMP180;21687;48.900;9.188;2023-07-30T13:40:47;98396.00;;;23.30
35582;BMP180;21687;48.900;9.188;2023-07-30T13:43:13;98397.00;;;23.10
35582;BMP180;21687;48.900;9.188;2023-07-30T13:45:40;98393.00;;;23.40
35582;BMP180;21687;48.900;9.188;2023-07-30T13:48:06;98403.00;;;22.90
35582;BMP180;21687;48.900;9.188;2023-07-30T13:50:32;98411.00;;;22.60
35582;BMP180;21687;48.900;9.188;2023-07-30T13:52:58;98408.00;;;22.40
35582;BMP180;21687;48.900;9.188;2023-07-30T13:55:25;98416.00;;;22.50
35582;BMP180;21687;48.900;9.188;2023-07-30T13:57:51;98411.00;;;22.30
35582;BMP180;21687;48.900;9.188;2023-07-30T14:00:17;98416.00;;;22.60
35582;BMP180;21687;48.900;9.188;2023-07-30T14:02:44;98429.00;;;22.30
35582;BMP180;21687;48.900;9.188;2023-07-30T14:05:11;98431.00;;;22.20
35582;BMP180;21687;48.900;9.188;2023-07-30T14:07:38;98435.00;;;22.20
35582;BMP180;21687;48.900;9.188;2023-07-30T14:10:06;98425.00;;;22.50
35582;BMP180;21687;48.900;9.188;2023-07-30T14:12:33;98440.00;;;22.50
35582;BMP180;21687;48.900;9.188;2023-07-30T14:14:59;98438.00;;;22.30